Hartman, North Carolina
Current Conditions -  °F | °C
As of 1:15 AM on Monday 26 Jan 2015 (Local Time) from KMTV Reporting Station
Overcast Overcast  
Wind Chill: 43°   Ceiling: 11000
Heat Index: 43°   Visibility: 10mi
Dew Point: 36°   Wind: 0mph
Humidity: 75%   Direction: NA
Pressure: 29.71"   Gusts: NA
Location:  36.4518°N, 80.2145°W
Report Text: KMTV 260615Z AUTO 00000KT 10SM SCT045 SCT090 OVC110 06/02 A2971 RMK AO2 T00620021
Loading
Personal Weather Stations






























Interactive Weather Map New forecast layout! Learn more

10-Day Weather Forecast

Advertisements
Track Severe Weather on mobile